sensor_id;sensor_type;location;lat;lon;timestamp;temperature;humidity
1123;DHT22;548;48.778;9.252;2023-01-16T10:12:57;6.30;98.40
1123;DHT22;548;48.778;9.252;2023-01-16T10:15:35;7.00;94.80
1123;DHT22;548;48.778;9.252;2023-01-16T10:18:16;7.00;95.30
1123;DHT22;548;48.778;9.252;2023-01-16T10:20:55;7.00;95.00
1123;DHT22;548;48.778;9.252;2023-01-16T10:23:36;7.00;94.80
1123;DHT22;548;48.778;9.252;2023-01-16T10:26:07;7.00;94.10
1123;DHT22;548;48.778;9.252;2023-01-16T10:28:50;7.00;93.30
1123;DHT22;548;48.778;9.252;2023-01-16T10:31:21;7.10;92.90
1123;DHT22;548;48.778;9.252;2023-01-16T10:33:52;7.20;92.20
1123;DHT22;548;48.778;9.252;2023-01-16T10:36:24;7.20;91.60
1123;DHT22;548;48.778;9.252;2023-01-16T10:38:54;7.30;91.30
1123;DHT22;548;48.778;9.252;2023-01-16T10:41:25;7.30;91.10
1123;DHT22;548;48.778;9.252;2023-01-16T10:44:22;7.30;91.20
1123;DHT22;548;48.778;9.252;2023-01-16T10:47:10;7.30;91.00
1123;DHT22;548;48.778;9.252;2023-01-16T10:49:55;7.30;90.30
1123;DHT22;548;48.778;9.252;2023-01-16T10:52:22;7.40;92.50
1123;DHT22;548;48.778;9.252;2023-01-16T10:54:50;7.50;92.30
1123;DHT22;548;48.778;9.252;2023-01-16T10:57:19;7.50;90.70
1123;DHT22;548;48.778;9.252;2023-01-16T10:59:50;7.60;90.70
1123;DHT22;548;48.778;9.252;2023-01-16T11:02:20;7.60;91.50
1123;DHT22;548;48.778;9.252;2023-01-16T11:04:52;7.60;91.40
1123;DHT22;548;48.778;9.252;2023-01-16T11:07:21;7.60;91.60
1123;DHT22;548;48.778;9.252;2023-01-16T11:09:48;7.70;90.20
1123;DHT22;548;48.778;9.252;2023-01-16T11:12:21;7.70;90.00
1123;DHT22;548;48.778;9.252;2023-01-16T11:15:14;7.70;91.10
1123;DHT22;548;48.778;9.252;2023-01-16T11:18:00;7.50;93.40
1123;DHT22;548;48.778;9.252;2023-01-16T11:20:45;7.20;98.60
1123;DHT22;548;48.778;9.252;2023-01-16T11:23:17;7.00;99.90
1123;DHT22;548;48.778;9.252;2023-01-16T11:25:45;7.00;99.90
1123;DHT22;548;48.778;9.252;2023-01-16T11:28:17;7.00;99.90
1123;DHT22;548;48.778;9.252;2023-01-16T11:30:47;7.10;99.90
1123;DHT22;548;48.778;9.252;2023-01-16T11:33:17;7.30;99.90
1123;DHT22;548;48.778;9.252;2023-01-16T11:35:50;7.50;99.90
1123;DHT22;548;48.778;9.252;2023-01-16T11:38:17;7.50;99.90
1123;DHT22;548;48.778;9.252;2023-01-16T11:40:46;7.40;99.90
1123;DHT22;548;48.778;9.252;2023-01-16T11:43:15;7.40;99.90
1123;DHT22;548;48.778;9.252;2023-01-16T11:46:06;7.40;99.90
1123;DHT22;548;48.778;9.252;2023-01-16T11:48:39;7.40;99.90
1123;DHT22;548;48.778;9.252;2023-01-16T11:51:11;7.50;99.90
1123;DHT22;548;48.778;9.252;2023-01-16T11:53:39;7.40;99.90
1123;DHT22;548;48.778;9.252;2023-01-16T11:56:21;7.50;99.90
1123;DHT22;548;48.778;9.252;2023-01-16T11:58:57;7.50;99.90
1123;DHT22;548;48.778;9.252;2023-01-16T12:01:42;7.60;99.90
1123;DHT22;548;48.778;9.252;2023-01-16T12:04:29;7.60;99.90
1123;DHT22;548;48.778;9.252;2023-01-16T12:07:02;7.60;99.90
1123;DHT22;548;48.778;9.252;2023-01-16T12:09:40;7.60;99.90
1123;DHT22;548;48.778;9.252;2023-01-16T12:12:17;7.60;99.90
1123;DHT22;548;48.778;9.252;2023-01-16T12:15:05;7.60;99.90
1123;DHT22;548;48.778;9.252;2023-01-16T12:17:55;7.60;99.90
1123;DHT22;548;48.778;9.252;2023-01-16T12:20:31;7.60;99.90
1123;DHT22;548;48.778;9.252;2023-01-16T12:23:27;7.60;99.90
1123;DHT22;548;48.778;9.252;2023-01-16T12:26:05;7.70;99.90
1123;DHT22;548;48.778;9.252;2023-01-16T12:28:38;7.70;99.90
1123;DHT22;548;48.778;9.252;2023-01-16T12:31:20;7.70;99.90
1123;DHT22;548;48.778;9.252;2023-01-16T12:34:14;7.80;99.90
1123;DHT22;548;48.778;9.252;2023-01-16T12:36:56;7.80;99.90
1123;DHT22;548;48.778;9.252;2023-01-16T12:39:36;7.90;99.90
1123;DHT22;548;48.778;9.252;2023-01-16T12:42:14;7.90;99.90
1123;DHT22;548;48.778;9.252;2023-01-16T12:45:14;8.10;99.90
1123;DHT22;548;48.778;9.252;2023-01-16T12:47:54;8.20;99.90
1123;DHT22;548;48.778;9.252;2023-01-16T12:50:38;8.40;99.90
1123;DHT22;548;48.778;9.252;2023-01-16T12:53:39;8.40;99.90
1123;DHT22;548;48.778;9.252;2023-01-16T12:56:28;8.40;99.90
1123;DHT22;548;48.778;9.252;2023-01-16T12:59:02;8.40;99.90
1123;DHT22;548;48.778;9.252;2023-01-16T13:01:35;8.50;99.90
1123;DHT22;548;48.778;9.252;2023-01-16T13:04:10;8.40;99.90
1123;DHT22;548;48.778;9.252;2023-01-16T13:06:44;8.50;99.90
1123;DHT22;548;48.778;9.252;2023-01-16T13:09:16;8.40;99.90
1123;DHT22;548;48.778;9.252;2023-01-16T13:11:55;8.50;99.90
1123;DHT22;548;48.778;9.252;2023-01-16T13:14:42;8.50;99.90
1123;DHT22;548;48.778;9.252;2023-01-16T13:17:12;8.60;99.90
1123;DHT22;548;48.778;9.252;2023-01-16T13:19:41;8.60;99.90
1123;DHT22;548;48.778;9.252;2023-01-16T13:22:20;8.70;99.90
1123;DHT22;548;48.778;9.252;2023-01-16T13:24:51;8.70;99.90
1123;DHT22;548;48.778;9.252;2023-01-16T13:27:24;8.70;99.90
1123;DHT22;548;48.778;9.252;2023-01-16T13:29:55;8.70;99.90
1123;DHT22;548;48.778;9.252;2023-01-16T13:32:26;8.80;99.90
1123;DHT22;548;48.778;9.252;2023-01-16T13:34:56;8.80;99.90
1123;DHT22;548;48.778;9.252;2023-01-16T13:37:44;8.80;99.90
1123;DHT22;548;48.778;9.252;2023-01-16T13:40:31;9.00;99.90
1123;DHT22;548;48.778;9.252;2023-01-16T13:43:03;9.10;99.90
1123;DHT22;548;48.778;9.252;2023-01-16T13:45:45;9.10;99.90
1123;DHT22;548;48.778;9.252;2023-01-16T13:48:19;9.10;99.90
1123;DHT22;548;48.778;9.252;2023-01-16T13:50:52;9.10;99.90
1123;DHT22;548;48.778;9.252;2023-01-16T13:53:21;9.10;99.90
1123;DHT22;548;48.778;9.252;2023-01-16T13:55:51;9.10;99.90
1123;DHT22;548;48.778;9.252;2023-01-16T13:58:26;9.10;99.90
1123;DHT22;548;48.778;9.252;2023-01-16T14:00:58;9.10;99.90
1123;DHT22;548;48.778;9.252;2023-01-16T14:03:26;9.00;99.90
1123;DHT22;548;48.778;9.252;2023-01-16T14:05:54;9.10;99.90
1123;DHT22;548;48.778;9.252;2023-01-16T14:08:50;9.20;99.90
1123;DHT22;548;48.778;9.252;2023-01-16T14:14:24;9.20;99.20
1123;DHT22;548;48.778;9.252;2023-01-16T14:17:06;9.30;99.60
1123;DHT22;548;48.778;9.252;2023-01-16T14:19:36;9.30;98.90
1123;DHT22;548;48.778;9.252;2023-01-16T14:22:04;9.30;98.90
1123;DHT22;548;48.778;9.252;2023-01-16T14:24:48;9.30;99.10
1123;DHT22;548;48.778;9.252;2023-01-16T14:27:17;9.20;98.70
1123;DHT22;548;48.778;9.252;2023-01-16T14:29:47;9.10;98.80
1123;DHT22;548;48.778;9.252;2023-01-16T14:32:17;9.10;98.80
1123;DHT22;548;48.778;9.252;2023-01-16T14:34:49;9.10;98.90
1123;DHT22;548;48.778;9.252;2023-01-16T14:37:20;8.90;99.30
1123;DHT22;548;48.778;9.252;2023-01-16T14:39:50;8.80;99.60
1123;DHT22;548;48.778;9.252;2023-01-16T14:42:19;8.60;99.90
1123;DHT22;548;48.778;9.252;2023-01-16T14:45:25;8.50;99.90
1123;DHT22;548;48.778;9.252;2023-01-16T14:48:29;8.60;99.90
1123;DHT22;548;48.778;9.252;2023-01-16T14:51:18;8.40;99.90
1123;DHT22;548;48.778;9.252;2023-01-16T14:54:11;8.40;99.90
1123;DHT22;548;48.778;9.252;2023-01-16T14:57:01;8.30;99.90
1123;DHT22;548;48.778;9.252;2023-01-16T14:59:31;8.20;99.90
1123;DHT22;548;48.778;9.252;2023-01-16T15:02:01;8.20;99.90
1123;DHT22;548;48.778;9.252;2023-01-16T15:04:53;8.20;99.90
1123;DHT22;548;48.778;9.252;2023-01-16T15:07:26;8.00;99.90
1123;DHT22;548;48.778;9.252;2023-01-16T15:09:56;7.90;99.90
1123;DHT22;548;48.778;9.252;2023-01-16T15:12:37;7.90;99.90
1123;DHT22;548;48.778;9.252;2023-01-16T15:15:06;7.90;99.90
1123;DHT22;548;48.778;9.252;2023-01-16T15:17:44;7.80;99.90
1123;DHT22;548;48.778;9.252;2023-01-16T15:20:28;7.80;99.90
1123;DHT22;548;48.778;9.252;2023-01-16T15:23:22;7.70;99.90
1123;DHT22;548;48.778;9.252;2023-01-16T15:26:13;7.60;99.90
1123;DHT22;548;48.778;9.252;2023-01-16T15:28:50;7.50;99.90
1123;DHT22;548;48.778;9.252;2023-01-16T15:31:26;7.50;99.90
1123;DHT22;548;48.778;9.252;2023-01-16T15:33:59;7.60;99.90
1123;DHT22;548;48.778;9.252;2023-01-16T15:36:31;7.60;99.90
1123;DHT22;548;48.778;9.252;2023-01-16T15:39:00;7.70;99.90
1123;DHT22;548;48.778;9.252;2023-01-16T15:41:33;7.70;99.90
1123;DHT22;548;48.778;9.252;2023-01-16T15:44:17;7.70;99.90
1123;DHT22;548;48.778;9.252;2023-01-16T15:47:28;7.60;99.90
1123;DHT22;548;48.778;9.252;2023-01-16T15:50:06;7.50;99.90
1123;DHT22;548;48.778;9.252;2023-01-16T15:52:35;7.50;99.90
1123;DHT22;548;48.778;9.252;2023-01-16T15:55:15;7.40;99.90
1123;DHT22;548;48.778;9.252;2023-01-16T15:57:43;7.30;99.90
1123;DHT22;548;48.778;9.252;2023-01-16T16:00:27;7.20;99.90
1123;DHT22;548;48.778;9.252;2023-01-16T16:02:58;7.00;99.90
1123;DHT22;548;48.778;9.252;2023-01-16T16:05:27;6.90;99.90
1123;DHT22;548;48.778;9.252;2023-01-16T16:07:54;6.80;99.90
1123;DHT22;548;48.778;9.252;2023-01-16T16:10:21;6.80;99.90
1123;DHT22;548;48.778;9.252;2023-01-16T16:13:07;6.80;99.90
1123;DHT22;548;48.778;9.252;2023-01-16T16:15:35;6.80;99.90
1123;DHT22;548;48.778;9.252;2023-01-16T16:18:20;6.90;99.90
1123;DHT22;548;48.778;9.252;2023-01-16T16:20:49;6.80;99.90
1123;DHT22;548;48.778;9.252;2023-01-16T16:23:20;6.80;99.90
1123;DHT22;548;48.778;9.252;2023-01-16T16:25:50;6.70;99.90
1123;DHT22;548;48.778;9.252;2023-01-16T16:28:20;6.60;99.90
1123;DHT22;548;48.778;9.252;2023-01-16T16:30:54;6.60;99.90
1123;DHT22;548;48.778;9.252;2023-01-16T16:33:22;6.50;99.90
1123;DHT22;548;48.778;9.252;2023-01-16T16:35:51;6.50;99.90
1123;DHT22;548;48.778;9.252;2023-01-16T16:38:21;6.50;99.90
1123;DHT22;548;48.778;9.252;2023-01-16T16:41:17;6.50;99.90
1123;DHT22;548;48.778;9.252;2023-01-16T16:44:22;6.40;99.90
1123;DHT22;548;48.778;9.252;2023-01-16T16:46:55;6.30;99.90
1123;DHT22;548;48.778;9.252;2023-01-16T16:49:28;6.20;99.90
1123;DHT22;548;48.778;9.252;2023-01-16T16:55:25;6.20;99.90
1123;DHT22;548;48.778;9.252;2023-01-16T16:57:54;6.10;99.90
1123;DHT22;548;48.778;9.252;2023-01-16T17:00:21;6.10;99.90
1123;DHT22;548;48.778;9.252;2023-01-16T17:02:52;6.00;99.90
1123;DHT22;548;48.778;9.252;2023-01-16T17:05:20;6.00;99.90
1123;DHT22;548;48.778;9.252;2023-01-16T17:07:47;6.00;99.90
1123;DHT22;548;48.778;9.252;2023-01-16T17:10:16;5.90;99.90
1123;DHT22;548;48.778;9.252;2023-01-16T17:12:42;5.90;99.90
1123;DHT22;548;48.778;9.252;2023-01-16T17:15:10;5.80;99.90
1123;DHT22;548;48.778;9.252;2023-01-16T17:17:39;5.90;99.90
1123;DHT22;548;48.778;9.252;2023-01-16T17:20:18;5.80;99.90
1123;DHT22;548;48.778;9.252;2023-01-16T17:22:45;5.80;99.90
1123;DHT22;548;48.778;9.252;2023-01-16T17:25:13;5.80;99.90
1123;DHT22;548;48.778;9.252;2023-01-16T17:27:47;5.80;99.90
1123;DHT22;548;48.778;9.252;2023-01-16T17:30:14;5.80;99.90
1123;DHT22;548;48.778;9.252;2023-01-16T17:32:42;5.80;99.90
1123;DHT22;548;48.778;9.252;2023-01-16T17:35:19;5.80;99.90
1123;DHT22;548;48.778;9.252;2023-01-16T17:37:46;5.70;99.90
1123;DHT22;548;48.778;9.252;2023-01-16T17:40:13;5.70;99.90
1123;DHT22;548;48.778;9.252;2023-01-16T17:42:40;5.70;99.90
1123;DHT22;548;48.778;9.252;2023-01-16T17:45:34;5.70;99.90
1123;DHT22;548;48.778;9.252;2023-01-16T17:48:22;5.70;99.90
1123;DHT22;548;48.778;9.252;2023-01-16T17:50:51;5.60;99.90
1123;DHT22;548;48.778;9.252;2023-01-16T17:53:19;5.60;99.90
1123;DHT22;548;48.778;9.252;2023-01-16T17:55:48;5.60;99.90
1123;DHT22;548;48.778;9.252;2023-01-16T17:58:19;5.60;99.90
